Overview Statistics Trail Chart Weather Telemetry Raw packets
 

This is the latest recevied weather packets stored in our database for station/object SQ7PKP-15. If no packets are shown the sender has not sent any weather packets the latest 10 day(s).

<< 1 2 3 4 5 6 7 >>
Time Temp. Humidity Pressure Rain* Wind** Luminosity Snow
1788536857 23.33° C 64% 1007 hPa - - - -
1788536257 23.33° C 65% 1007.5 hPa - - - -
1788535657 23.33° C 64% 1007.6 hPa - - - -
1788535057 23.33° C 65% 1007.1 hPa - - - -
1788534457 23.33° C 66% 1007.5 hPa - - - -
1788533857 23.33° C 65% 1008 hPa - - - -
1788533257 23.89° C 66% 1008 hPa - - - -
1788532657 23.89° C 67% 1007.3 hPa - - - -
1788532057 23.33° C 67% 1008.2 hPa - - - -
1788531457 23.33° C 68% 1006.9 hPa - - - -
1788530857 22.22° C 72% 1008.1 hPa - - - -
1788530257 21.67° C 74% 1008.6 hPa - - - -
1788529657 21.67° C 73% 1009 hPa - - - -
1788529057 21.67° C 72% 1008.9 hPa - - - -
1788528219 22.78° C 68% 1011.2 hPa - - - -
1788353840 20.56° C 61% - - - 640 W/m² -
1788352939 20.56° C 61% - - - 640 W/m² -
1788352038 20.56° C 61% - - - 640 W/m² -
1788344265 20° C 65% 999.8 hPa - - 455 W/m² -
1788341813 20.56° C 65% 999.6 hPa - - 597 W/m² -
1788341211 20.56° C 65% 999.5 hPa - - 597 W/m² -
1788340610 19.44° C 73% 999.4 hPa - - 487 W/m² -
1788339709 19.44° C 73% 999.5 hPa - - 487 W/m² -
1788338809 19.44° C 73% 999.6 hPa - - 487 W/m² -
1788337908 17.78° C 77% 999.6 hPa - - 247 W/m² -

* Rain since midnight (hover to see other rain measurements)
** Current wind speed in m/s (hover to see current wind gust speed)